CCA351 ZYTX-ZGSZ
Flight info
| Callsign | CCA351 |
|---|---|
| Flight time | N/A |
| Altitude | FL360 |
| Route | TOS71D TOSID A588 UDETI W202 DOBGA V68 TEKAM W172 FD W174 XDX B221 ODULO V2 HSH G455 PK W116 JTN A599 NXD W131 AKDIM A470 DUBGO W134 ELNEX A599 CON W6 SAREX SAREX4 |
| Aircraft | MD11/H-CDGHLRTW/CB1D1 |
Departure
| Time | N/A |
|---|---|
| Airport | Shenyang Taoxian International Airport (ZYTX) |
Arrival
| Time | 2026-04-24 16:05 |
|---|---|
| Airport | Shenzhen Bao'an International Airport (ZGSZ) |
| Time | Latitude | Longitude | Altitude | Speed | Heading |
|---|---|---|---|---|---|
| 2026-04-24 15:44 | 23.17214 | 113.52584 | 3593 ft | 271 kts | 188° |
| 2026-04-24 15:45 | 23.15353 | 113.52309 | 3281 ft | 270 kts | 189° |
| 2026-04-24 15:45 | 23.13539 | 113.52041 | 3013 ft | 267 kts | 189° |
| 2026-04-24 15:45 | 23.11901 | 113.51803 | 2989 ft | 263 kts | 189° |
| 2026-04-24 15:45 | 23.10143 | 113.51547 | 2990 ft | 261 kts | 189° |
| 2026-04-24 15:46 | 23.08878 | 113.51362 | 2992 ft | 261 kts | 189° |
| 2026-04-24 15:46 | 23.07092 | 113.51100 | 2996 ft | 261 kts | 189° |
| 2026-04-24 15:46 | 23.05308 | 113.50839 | 2999 ft | 261 kts | 189° |
| 2026-04-24 15:46 | 23.03526 | 113.50579 | 3001 ft | 262 kts | 189° |
| 2026-04-24 15:47 | 23.01736 | 113.50318 | 3002 ft | 262 kts | 189° |
| 2026-04-24 15:47 | 22.99946 | 113.50057 | 3003 ft | 262 kts | 189° |
| 2026-04-24 15:47 | 22.98138 | 113.49793 | 3005 ft | 262 kts | 189° |
| 2026-04-24 15:47 | 22.96339 | 113.49529 | 3006 ft | 262 kts | 189° |
| 2026-04-24 15:48 | 22.93941 | 113.49178 | 3008 ft | 261 kts | 189° |
| 2026-04-24 15:48 | 22.92750 | 113.49004 | 3008 ft | 261 kts | 189° |
| 2026-04-24 15:48 | 22.90354 | 113.48654 | 3006 ft | 261 kts | 189° |
| 2026-04-24 15:48 | 22.89154 | 113.48487 | 3004 ft | 261 kts | 188° |
| 2026-04-24 15:49 | 22.86740 | 113.48278 | 3001 ft | 261 kts | 184° |
| 2026-04-24 15:49 | 22.84920 | 113.48227 | 3001 ft | 262 kts | 182° |
| 2026-04-24 15:49 | 22.83702 | 113.48206 | 3000 ft | 262 kts | 182° |
| 2026-04-24 15:49 | 22.81279 | 113.48155 | 2998 ft | 262 kts | 183° |
| 2026-04-24 15:50 | 22.79465 | 113.48102 | 2997 ft | 262 kts | 183° |
| 2026-04-24 15:50 | 22.78285 | 113.48065 | 2997 ft | 262 kts | 183° |
| 2026-04-24 15:50 | 22.75858 | 113.47989 | 2996 ft | 262 kts | 183° |
| 2026-04-24 15:50 | 22.74654 | 113.47985 | 2993 ft | 262 kts | 179° |
| 2026-04-24 15:51 | 22.72841 | 113.48245 | 2994 ft | 263 kts | 168° |
| 2026-04-24 15:51 | 22.70546 | 113.49085 | 3003 ft | 263 kts | 160° |
| 2026-04-24 15:51 | 22.69408 | 113.49576 | 3002 ft | 263 kts | 160° |
| 2026-04-24 15:51 | 22.67717 | 113.50310 | 3000 ft | 263 kts | 160° |
| 2026-04-24 15:52 | 22.66014 | 113.51024 | 2998 ft | 263 kts | 161° |
| 2026-04-24 15:52 | 22.64307 | 113.51714 | 2997 ft | 263 kts | 161° |
| 2026-04-24 15:52 | 22.62597 | 113.52396 | 2996 ft | 263 kts | 161° |
| 2026-04-24 15:52 | 22.60875 | 113.53080 | 2994 ft | 263 kts | 161° |
| 2026-04-24 15:53 | 22.59247 | 113.53962 | 2991 ft | 264 kts | 149° |
| 2026-04-24 15:53 | 22.57765 | 113.55135 | 3000 ft | 264 kts | 142° |
| 2026-04-24 15:53 | 22.56371 | 113.56424 | 3001 ft | 265 kts | 139° |
| 2026-04-24 15:53 | 22.55007 | 113.57757 | 2998 ft | 265 kts | 139° |
| 2026-04-24 15:54 | 22.53156 | 113.59495 | 2993 ft | 264 kts | 141° |
| 2026-04-24 15:54 | 22.51748 | 113.60768 | 2991 ft | 264 kts | 141° |
| 2026-04-24 15:54 | 22.50326 | 113.62030 | 2990 ft | 264 kts | 142° |
| 2026-04-24 15:54 | 22.49370 | 113.62872 | 2990 ft | 264 kts | 142° |
| 2026-04-24 15:55 | 22.47470 | 113.64531 | 2989 ft | 264 kts | 142° |
| 2026-04-24 15:55 | 22.46029 | 113.65786 | 2989 ft | 264 kts | 142° |
| 2026-04-24 15:55 | 22.45075 | 113.66614 | 2988 ft | 264 kts | 142° |
| 2026-04-24 15:55 | 22.43660 | 113.67839 | 2980 ft | 266 kts | 142° |
| 2026-04-24 15:56 | 22.41826 | 113.69469 | 2952 ft | 244 kts | 142° |
| 2026-04-24 15:56 | 22.40619 | 113.70561 | 2931 ft | 232 kts | 142° |
| 2026-04-24 15:56 | 22.39453 | 113.71625 | 2950 ft | 222 kts | 142° |
| 2026-04-24 15:56 | 22.38350 | 113.72637 | 2991 ft | 215 kts | 142° |
| 2026-04-24 15:57 | 22.37572 | 113.73353 | 3053 ft | 218 kts | 142° |
| 2026-04-24 15:57 | 22.36112 | 113.74753 | 2961 ft | 207 kts | 133° |
| 2026-04-24 15:57 | 22.35683 | 113.75598 | 2964 ft | 208 kts | 106° |
| 2026-04-24 15:57 | 22.35816 | 113.77740 | 3058 ft | 212 kts | 68° |
| 2026-04-24 15:58 | 22.36433 | 113.79150 | 2986 ft | 205 kts | 57° |
| 2026-04-24 15:58 | 22.37105 | 113.80486 | 2954 ft | 202 kts | 59° |
| 2026-04-24 15:58 | 22.37738 | 113.81838 | 2962 ft | 202 kts | 61° |
| 2026-04-24 15:58 | 22.38357 | 113.83217 | 2973 ft | 203 kts | 62° |
| 2026-04-24 15:59 | 22.38965 | 113.84583 | 2973 ft | 203 kts | 59° |
| 2026-04-24 15:59 | 22.39718 | 113.85863 | 2972 ft | 201 kts | 51° |
| 2026-04-24 15:59 | 22.40581 | 113.87045 | 2978 ft | 201 kts | 47° |
| 2026-04-24 15:59 | 22.41488 | 113.88182 | 2979 ft | 200 kts | 45° |
| 2026-04-24 16:00 | 22.42414 | 113.89303 | 2978 ft | 200 kts | 45° |
| 2026-04-24 16:00 | 22.43431 | 113.90305 | 2964 ft | 197 kts | 30° |
| 2026-04-24 16:00 | 22.44244 | 113.90749 | 2970 ft | 195 kts | 16° |
| 2026-04-24 16:00 | 22.45560 | 113.90881 | 3010 ft | 192 kts | 351° |
| 2026-04-24 16:01 | 22.47216 | 113.90269 | 3006 ft | 181 kts | 332° |
| 2026-04-24 16:01 | 22.48229 | 113.89684 | 2942 ft | 164 kts | 329° |
| 2026-04-24 16:01 | 22.48861 | 113.89310 | 2878 ft | 159 kts | 330° |
| 2026-04-24 16:01 | 22.50124 | 113.88601 | 2705 ft | 155 kts | 332° |
| 2026-04-24 16:02 | 22.50770 | 113.88254 | 2588 ft | 154 kts | 333° |
| 2026-04-24 16:02 | 22.52046 | 113.87567 | 2322 ft | 154 kts | 333° |
| 2026-04-24 16:02 | 22.53001 | 113.87050 | 2117 ft | 154 kts | 333° |
| 2026-04-24 16:02 | 22.53955 | 113.86530 | 1912 ft | 154 kts | 334° |
| 2026-04-24 16:03 | 22.54912 | 113.86008 | 1707 ft | 155 kts | 334° |
| 2026-04-24 16:03 | 22.55870 | 113.85484 | 1501 ft | 154 kts | 334° |
| 2026-04-24 16:03 | 22.56827 | 113.84960 | 1297 ft | 155 kts | 335° |
| 2026-04-24 16:03 | 22.57776 | 113.84439 | 1093 ft | 156 kts | 335° |
| 2026-04-24 16:04 | 22.58741 | 113.83911 | 885 ft | 157 kts | 335° |
| 2026-04-24 16:04 | 22.59713 | 113.83381 | 685 ft | 157 kts | 335° |
| 2026-04-24 16:04 | 22.60361 | 113.83030 | 577 ft | 158 kts | 335° |
| 2026-04-24 16:04 | 22.61665 | 113.82301 | 331 ft | 159 kts | 335° |
| 2026-04-24 16:05 | 22.63522 | 113.81291 | 27 ft | 102 kts | 334° |
| 2026-04-24 16:05 | 22.63831 | 113.81125 | 26 ft | 33 kts | 334° |
| 2026-04-24 16:06 | 22.64196 | 113.80941 | 26 ft | 20 kts | 336° |
| 2026-04-24 16:06 | 22.64338 | 113.80902 | 26 ft | 22 kts | 358° |
| 2026-04-24 16:06 | 22.64520 | 113.80999 | 26 ft | 10 kts | 61° |
| 2026-04-24 16:07 | 22.64545 | 113.81020 | 26 ft | 7 kts | 13° |
| 2026-04-24 16:07 | 22.64627 | 113.81037 | 26 ft | 11 kts | 18° |
| 2026-04-24 16:07 | 22.64661 | 113.81049 | 26 ft | 0 kts | 19° |
| 2026-04-24 16:12 | 41.64927 | 123.49741 | 210 ft | 0 kts | 228° |